Time;durP1;ratioP1;P1;durP2;ratioP2;P2;SDS_P1;SDS_P2;PMS_P1;PMS_P2;Temp;Humidity;BMP_temperature;BMP_pressure;BME280_temperature;BME280_humidity;BME280_pressure;Samples;Min_cycle;Max_cycle;Signal;HPM_P1;HPM_P2
2023/03/08 00:02:05;;;;;;;;;29.67;25.00;;;;;4.58;81.24;99670.91;5118599;27;46675;-61
2023/03/08 00:04:31;;;;;;;;;37.67;32.33;;;;;4.86;82.08;99726.91;5117202;27;46053;-61
2023/03/08 00:06:56;;;;;;;;;34.67;31.00;;;;;4.90;82.17;99724.28;5118460;27;45331;-61
2023/03/08 00:09:22;;;;;;;;;33.67;32.67;;;;;4.86;80.68;99719.09;5118796;27;45444;-61
2023/03/08 00:11:47;;;;;;;;;33.33;31.33;;;;;4.84;82.10;99715.66;5118437;27;46595;-61
2023/03/08 00:14:12;;;;;;;;;45.67;30.67;;;;;4.88;81.00;99713.88;5117413;27;46131;-61
2023/03/08 00:16:38;;;;;;;;;43.67;34.67;;;;;4.76;81.87;99696.66;5118525;27;45356;-61
2023/03/08 00:19:03;;;;;;;;;33.33;29.67;;;;;4.83;81.63;99689.59;5118617;27;45314;-61
2023/03/08 00:21:28;;;;;;;;;40.67;35.33;;;;;4.83;82.33;99690.44;5117093;27;46075;-61
2023/03/08 00:23:54;;;;;;;;;41.00;36.00;;;;;4.40;81.38;99619.91;5118107;27;45264;-61
2023/03/08 00:26:19;;;;;;;;;39.00;27.00;;;;;4.68;81.67;99683.75;5118694;27;45417;-61
2023/03/08 00:28:45;;;;;;;;;37.33;30.67;;;;;4.69;81.96;99681.97;5118308;27;45427;-61
2023/03/08 00:31:12;;;;;;;;;27.33;22.00;;;;;4.56;81.10;99642.25;5118232;27;46202;-61
2023/03/08 00:33:39;;;;;;;;;32.33;27.33;;;;;4.69;81.38;99674.16;5118274;27;45471;-61
2023/03/08 00:36:09;;;;;;;;;36.33;26.67;;;;;4.62;82.65;99668.22;5118345;27;45312;-61
2023/03/08 00:38:35;;;;;;;;;32.00;26.33;;;;;4.54;82.75;99659.63;5118542;27;45379;-61
2023/03/08 00:41:02;;;;;;;;;33.00;25.00;;;;;4.59;82.38;99657.84;5117959;27;46368;-61
2023/03/08 00:43:27;;;;;;;;;37.00;27.33;;;;;4.58;81.27;99653.50;5120864;27;45310;-61
2023/03/08 00:45:53;;;;;;;;;34.67;26.00;;;;;4.55;83.55;99637.06;5121912;27;45557;-61
2023/03/08 00:48:18;;;;;;;;;34.00;28.00;;;;;4.56;82.71;99625.72;5121888;27;45526;-61
2023/03/08 00:50:44;;;;;;;;;28.33;25.67;;;;;4.68;82.85;99636.81;5121607;27;45458;-61
2023/03/08 00:53:10;;;;;;;;;30.00;23.33;;;;;4.60;82.01;99624.78;5121497;27;45269;-61
2023/03/08 00:55:35;;;;;;;;;21.00;17.67;;;;;4.54;81.23;99623.13;5121645;27;45469;-61
2023/03/08 00:58:01;;;;;;;;;31.00;23.00;;;;;4.56;82.70;99624.00;5122095;27;45284;-61
2023/03/08 01:00:26;;;;;;;;;29.33;22.67;;;;;4.55;81.51;99621.41;5121506;27;45327;-61
2023/03/08 01:02:52;;;;;;;;;31.33;23.67;;;;;4.51;81.83;99610.16;5121432;27;45273;-61
2023/03/08 01:05:17;;;;;;;;;27.00;23.33;;;;;4.40;82.50;99596.44;5121842;27;45346;-61
2023/03/08 01:07:43;;;;;;;;;40.33;24.00;;;;;4.46;82.00;99612.84;5121218;27;45379;-61
2023/03/08 01:10:09;;;;;;;;;26.00;23.33;;;;;4.39;83.29;99600.81;5121172;27;46307;-61
2023/03/08 01:12:35;;;;;;;;;30.67;25.67;;;;;4.43;82.46;99594.66;5121220;27;45373;-61
2023/03/08 01:15:01;;;;;;;;;34.00;26.00;;;;;4.43;82.78;99592.06;5121501;27;45317;-61
2023/03/08 01:17:26;;;;;;;;;36.00;28.33;;;;;4.45;83.55;99586.81;5121660;27;45338;-61
2023/03/08 01:19:52;;;;;;;;;37.67;27.67;;;;;4.43;84.31;99579.03;5121157;27;45456;-61
2023/03/08 01:22:17;;;;;;;;;42.67;27.67;;;;;4.48;83.04;99576.34;5121281;27;45353;-61
2023/03/08 01:24:44;;;;;;;;;23.00;18.67;;;;;4.36;83.28;99548.75;5121226;27;45530;-61
2023/03/08 01:27:09;;;;;;;;;41.33;29.67;;;;;4.31;83.64;99538.41;5121333;27;45387;-61
2023/03/08 01:29:34;;;;;;;;;38.00;26.00;;;;;4.38;84.54;99546.09;5121071;27;45233;-61
2023/03/08 01:32:00;;;;;;;;;29.33;23.33;;;;;4.42;83.56;99547.78;5120998;27;45388;-61
2023/03/08 01:34:25;;;;;;;;;36.67;30.67;;;;;4.43;84.35;99537.31;5121161;27;45433;-61
2023/03/08 01:36:50;;;;;;;;;27.67;24.33;;;;;4.39;83.31;99527.00;5121370;27;45207;-61
2023/03/08 01:39:16;;;;;;;;;38.33;31.33;;;;;4.38;83.09;99518.28;5120741;27;46674;-61
2023/03/08 01:41:41;;;;;;;;;43.67;31.33;;;;;4.37;83.70;99516.56;5121178;27;45203;-61
2023/03/08 01:44:14;;;;;;;;;26.00;24.67;;;;;4.41;83.80;99520.00;5121007;27;45405;-61
2023/03/08 01:46:40;;;;;;;;;35.00;29.00;;;;;4.38;84.46;99518.28;5121075;27;45469;-61
2023/03/08 01:49:10;;;;;;;;;31.33;27.33;;;;;4.42;83.69;99517.34;5120729;27;46358;-61
2023/03/08 01:51:53;;;;;;;;;35.33;28.00;;;;;4.40;83.88;99503.50;5120509;27;45449;-61
2023/03/08 01:54:24;;;;;;;;;32.67;26.33;;;;;4.29;84.70;99468.94;5119790;27;45315;-61
2023/03/08 01:56:53;;;;;;;;;31.00;26.33;;;;;4.08;84.33;99438.91;5121074;27;45367;-61
2023/03/08 01:59:21;;;;;;;;;36.33;27.67;;;;;4.30;83.02;99473.28;5120438;27;46191;-61
2023/03/08 02:01:47;;;;;;;;;33.00;27.67;;;;;4.24;83.36;99473.38;5120544;27;45691;-61
2023/03/08 02:04:13;;;;;;;;;42.67;29.33;;;;;4.18;84.72;99462.19;5120598;27;45307;-60
2023/03/08 02:06:38;;;;;;;;;31.67;29.67;;;;;4.10;85.58;99451.03;5120473;27;45206;-61
2023/03/08 02:09:04;;;;;;;;;21.67;21.33;;;;;4.12;86.62;99445.78;5120508;27;46275;-61
2023/03/08 02:11:32;;;;;;;;;40.67;27.00;;;;;4.11;86.00;99442.34;5120253;27;45301;-61
2023/03/08 02:13:59;;;;;;;;;24.33;20.33;;;;;4.11;85.79;99439.75;5120729;27;45545;-61
2023/03/08 02:16:24;;;;;;;;;34.67;23.33;;;;;4.02;85.95;99429.47;5120513;27;45314;-61
2023/03/08 02:18:59;;;;;;;;;22.00;20.00;;;;;4.01;86.73;99425.16;5120180;27;45548;-60
2023/03/08 02:21:26;;;;;;;;;24.67;22.33;;;;;4.03;85.49;99417.31;5120203;27;45536;-61
2023/03/08 02:23:52;;;;;;;;;25.33;23.00;;;;;4.00;85.49;99403.44;5120380;27;45341;-61
2023/03/08 02:26:18;;;;;;;;;21.67;21.33;;;;;3.89;84.93;99394.09;5120346;27;45435;-60
2023/03/08 02:28:44;;;;;;;;;30.33;22.33;;;;;3.90;84.88;99382.81;5119871;27;47262;-60
2023/03/08 02:31:09;;;;;;;;;25.00;21.00;;;;;3.98;84.86;99388.75;5120084;27;45431;-61
2023/03/08 02:33:35;;;;;;;;;29.67;24.67;;;;;3.87;85.93;99375.06;5120262;27;45263;-60
2023/03/08 02:36:05;;;;;;;;;24.67;22.67;;;;;3.89;85.14;99387.16;5120395;27;45442;-61
2023/03/08 02:38:30;;;;;;;;;24.67;21.33;;;;;3.87;85.86;99375.06;5119844;27;45346;-61
2023/03/08 02:40:56;;;;;;;;;24.33;17.33;;;;;3.80;85.02;99356.06;5119815;27;45353;-61
2023/03/08 02:43:21;;;;;;;;;26.33;22.33;;;;;3.77;85.62;99361.34;5120102;27;45361;-60
2023/03/08 02:45:47;;;;;;;;;22.33;19.00;;;;;3.57;86.13;99326.13;5120064;27;45384;-60
2023/03/08 02:48:14;;;;;;;;;29.67;21.67;;;;;3.79;85.79;99360.44;5119827;27;45412;-60
2023/03/08 02:50:39;;;;;;;;;21.33;17.33;;;;;3.77;86.53;99345.72;5119638;27;45217;-60
2023/03/08 02:53:04;;;;;;;;;25.00;13.00;;;;;3.72;85.81;99330.19;5119791;27;45539;-60
2023/03/08 02:55:30;;;;;;;;;24.00;17.00;;;;;3.80;86.57;99345.66;5120055;27;45299;-61
2023/03/08 02:57:55;;;;;;;;;22.67;18.00;;;;;3.70;87.00;99321.53;5119602;27;46336;-61
2023/03/08 03:00:21;;;;;;;;;25.67;20.33;;;;;3.73;86.99;99324.09;5119621;27;45357;-61
2023/03/08 03:02:47;;;;;;;;;28.33;20.00;;;;;3.68;87.45;99304.25;5119668;27;45212;-61
2023/03/08 03:05:12;;;;;;;;;25.67;21.67;;;;;3.56;87.76;99280.16;5119602;27;45430;-61
2023/03/08 03:07:40;;;;;;;;;32.67;20.33;;;;;3.69;87.85;99304.22;5118889;27;47149;-61
2023/03/08 03:10:08;;;;;;;;;33.67;25.00;;;;;3.73;89.40;99297.19;5119312;27;45335;-60
2023/03/08 03:12:33;;;;;;;;;28.33;22.33;;;;;3.46;87.75;99243.03;5119566;27;45263;-60
2023/03/08 03:15:01;;;;;;;;;34.00;26.67;;;;;3.66;87.59;99286.91;5119633;27;45236;-61
2023/03/08 03:17:26;;;;;;;;;28.67;25.67;;;;;3.59;88.23;99272.28;5119321;27;46570;-60
2023/03/08 03:19:52;;;;;;;;;41.67;31.00;;;;;3.59;88.93;99266.22;5119427;27;45406;-61
2023/03/08 03:22:17;;;;;;;;;29.00;26.00;;;;;3.34;88.96;99225.03;5119433;27;45423;-61
2023/03/08 03:24:42;;;;;;;;;40.00;27.67;;;;;3.56;88.74;99258.44;5119761;27;45224;-61
2023/03/08 03:27:08;;;;;;;;;34.67;28.00;;;;;3.43;88.74;99240.47;5118901;27;46916;-61
2023/03/08 03:29:33;;;;;;;;;28.67;20.67;;;;;3.49;90.34;99229.09;5119224;27;45934;-61
2023/03/08 03:31:58;;;;;;;;;36.00;24.00;;;;;3.46;89.51;99229.16;5119435;27;45424;-61
2023/03/08 03:34:24;;;;;;;;;43.00;34.00;;;;;3.36;89.56;99209.41;5119391;27;45654;-61
2023/03/08 03:36:49;;;;;;;;;40.33;31.33;;;;;3.41;90.92;99230.97;5119133;27;46894;-61
2023/03/08 03:39:15;;;;;;;;;32.33;27.33;;;;;3.38;92.91;99226.69;5118940;27;45436;-60
2023/03/08 03:41:40;;;;;;;;;30.33;23.00;;;;;3.31;94.38;99218.16;5119098;27;45382;-61
2023/03/08 03:44:05;;;;;;;;;35.00;20.00;;;;;3.33;94.92;99228.53;5119426;27;45441;-61
2023/03/08 03:46:31;;;;;;;;;32.67;26.33;;;;;3.23;95.51;99213.97;5118862;27;46355;-60
2023/03/08 03:48:56;;;;;;;;;33.00;26.00;;;;;3.26;92.75;99227.75;5118847;27;45388;-61
2023/03/08 03:51:22;;;;;;;;;24.67;18.67;;;;;3.29;93.24;99226.84;5118892;27;45307;-61
2023/03/08 03:53:48;;;;;;;;;32.00;22.33;;;;;3.28;93.94;99214.72;5119180;27;45465;-61
2023/03/08 03:56:19;;;;;;;;;37.33;26.00;;;;;3.29;97.28;99206.91;5118685;27;46512;-61
2023/03/08 03:58:45;;;;;;;;;22.00;21.67;;;;;3.25;95.16;99213.06;5118743;27;45406;-60
2023/03/08 04:01:14;;;;;;;;;36.67;30.33;;;;;3.22;95.98;99207.88;5118755;27;45434;-61
2023/03/08 04:03:40;;;;;;;;;30.67;24.33;;;;;3.17;96.88;99199.31;5119122;27;45296;-61
2023/03/08 04:06:14;;;;;;;;;18.00;17.67;;;;;2.87;96.35;99140.91;5118575;27;45429;-61
2023/03/08 04:08:41;;;;;;;;;28.00;24.33;;;;;3.30;96.71;99205.16;5118366;27;45452;-61
2023/03/08 04:11:16;;;;;;;;;35.33;27.00;;;;;3.31;100.00;99194.75;5118686;27;45225;-61
2023/03/08 04:13:42;;;;;;;;;23.33;23.33;;;;;3.37;100.00;99180.75;5118892;27;45260;-61
2023/03/08 04:16:13;;;;;;;;;32.33;24.67;;;;;3.38;100.00;99163.41;5118299;27;45206;-61
2023/03/08 04:18:38;;;;;;;;;25.67;21.00;;;;;3.43;100.00;99156.38;5118177;27;45422;-61
2023/03/08 04:21:04;;;;;;;;;27.67;20.00;;;;;3.38;100.00;99153.84;5118547;27;45199;-61
2023/03/08 04:23:29;;;;;;;;;20.33;17.00;;;;;3.34;100.00;99147.00;5118923;27;45356;-61
2023/03/08 04:25:54;;;;;;;;;21.33;18.00;;;;;3.33;100.00;99137.47;5118108;27;47037;-61
2023/03/08 04:28:20;;;;;;;;;25.33;20.33;;;;;3.37;100.00;99130.47;5118104;27;45361;-61
2023/03/08 04:30:45;;;;;;;;;22.00;17.00;;;;;3.01;99.77;99073.94;5118672;27;45323;-61
2023/03/08 04:33:11;;;;;;;;;18.33;16.00;;;;;3.21;99.04;99106.50;5118703;27;45311;-61
2023/03/08 04:35:36;;;;;;;;;24.33;17.00;;;;;2.89;99.22;99058.56;5118273;27;45598;-61
2023/03/08 04:38:01;;;;;;;;;20.33;15.00;;;;;3.07;99.58;99073.81;5118295;27;45316;-61
2023/03/08 04:40:27;;;;;;;;;15.00;13.00;;;;;3.16;99.62;99084.94;5118025;27;45472;-61
2023/03/08 04:42:52;;;;;;;;;18.33;11.33;;;;;3.11;98.05;99067.66;5118744;27;45142;-61
2023/03/08 04:45:17;;;;;;;;;15.00;11.33;;;;;3.00;99.23;99060.97;5118193;27;45434;-61
2023/03/08 04:47:43;;;;;;;;;27.67;20.67;;;;;2.96;100.00;99041.97;5118053;27;45283;-61
2023/03/08 04:50:09;;;;;;;;;19.67;16.67;;;;;2.96;100.00;99036.75;5118305;27;45349;-61
2023/03/08 04:52:34;;;;;;;;;14.67;14.67;;;;;2.88;100.00;99044.72;5118131;27;45576;-61
2023/03/08 04:54:59;;;;;;;;;19.67;16.00;;;;;2.71;100.00;99013.84;5112785;27;46103;-61
2023/03/08 04:57:25;;;;;;;;;20.33;15.00;;;;;2.86;100.00;99030.03;5104723;27;45433;-61
2023/03/08 04:59:50;;;;;;;;;24.00;20.33;;;;;2.81;100.00;99035.31;5101218;27;45861;-61
2023/03/08 05:02:16;;;;;;;;;18.67;16.00;;;;;2.88;100.00;99030.88;5097623;27;45310;-61
2023/03/08 05:04:41;;;;;;;;;17.33;14.67;;;;;2.78;98.86;99031.03;5096949;27;46397;-61
2023/03/08 05:07:06;;;;;;;;;19.67;16.33;;;;;2.78;100.00;99028.44;5097146;27;45451;-61
2023/03/08 05:09:32;;;;;;;;;24.33;22.00;;;;;2.77;99.52;99016.34;5097441;27;45399;-61
2023/03/08 05:11:58;;;;;;;;;19.67;16.00;;;;;2.81;98.62;99030.13;5097329;27;45476;-61
2023/03/08 05:14:23;;;;;;;;;22.67;21.00;;;;;2.81;99.20;99013.69;5097193;27;46905;-61
2023/03/08 05:16:49;;;;;;;;;18.00;16.67;;;;;2.77;98.31;98998.16;5096896;27;45327;-61
2023/03/08 05:19:14;;;;;;;;;16.00;16.00;;;;;2.86;98.34;99007.50;5097464;27;45307;-61
2023/03/08 05:21:39;;;;;;;;;23.33;19.00;;;;;2.86;98.07;98984.13;5097492;27;45456;-61
2023/03/08 05:24:05;;;;;;;;;20.33;18.33;;;;;2.88;97.10;98997.09;5097130;27;46420;-61
2023/03/08 05:26:30;;;;;;;;;27.00;20.33;;;;;2.95;96.13;99007.31;5096910;27;45177;-61
2023/03/08 05:28:56;;;;;;;;;24.00;19.67;;;;;2.65;96.76;98956.78;5097446;27;45609;-61
2023/03/08 05:31:21;;;;;;;;;33.00;21.00;;;;;2.89;99.55;98998.78;5101070;27;45359;-61
2023/03/08 05:33:49;;;;;;;;;22.33;21.00;;;;;2.98;98.99;98998.59;5100372;27;45425;-61
2023/03/08 05:36:16;;;;;;;;;27.33;20.67;;;;;2.86;99.03;98976.31;5099895;27;45425;-61
2023/03/08 05:38:42;;;;;;;;;29.33;19.33;;;;;2.88;99.60;98978.88;5100414;27;45429;-61
2023/03/08 05:41:11;;;;;;;;;23.33;19.00;;;;;2.82;100.00;98981.59;5100220;27;45422;-61
2023/03/08 05:43:37;;;;;;;;;20.00;17.00;;;;;2.78;100.00;98975.59;5100357;27;45626;-61
2023/03/08 05:46:09;;;;;;;;;27.00;18.67;;;;;2.78;100.00;98986.00;5100115;27;45352;-61
2023/03/08 05:48:35;;;;;;;;;19.67;16.00;;;;;2.73;100.00;98967.03;5100288;27;45393;-61
2023/03/08 05:51:05;;;;;;;;;19.00;17.00;;;;;2.67;100.00;98956.75;5100625;27;45328;-61
2023/03/08 05:53:30;;;;;;;;;18.33;15.33;;;;;2.67;100.00;98957.59;5099037;27;45662;-61
2023/03/08 05:55:56;;;;;;;;;19.00;15.00;;;;;2.63;100.00;98948.19;5100013;27;45442;-61
2023/03/08 05:58:21;;;;;;;;;19.33;17.00;;;;;2.63;100.00;98942.13;5100168;27;45377;-61
2023/03/08 06:00:46;;;;;;;;;20.33;14.33;;;;;2.57;100.00;98936.16;5100212;27;45319;-61
2023/03/08 06:03:12;;;;;;;;;21.33;16.33;;;;;2.57;100.00;98933.56;5100029;27;45409;-61
2023/03/08 06:05:37;;;;;;;;;22.33;17.00;;;;;2.54;100.00;98927.56;5099970;27;45376;-62
2023/03/08 06:08:03;;;;;;;;;16.67;15.33;;;;;2.49;100.00;98914.66;5099899;27;45301;-61
2023/03/08 06:10:28;;;;;;;;;20.67;18.00;;;;;2.41;100.00;98907.03;5099942;27;45497;-61
2023/03/08 06:12:53;;;;;;;;;22.33;17.33;;;;;2.43;100.00;98892.28;5099509;27;45631;-62
2023/03/08 06:15:19;;;;;;;;;17.33;16.00;;;;;2.49;100.00;98890.44;5099982;27;45323;-62
2023/03/08 06:17:44;;;;;;;;;16.33;15.00;;;;;2.46;98.37;98885.31;5099823;27;45300;-62
2023/03/08 06:20:10;;;;;;;;;17.00;14.00;;;;;2.36;100.00;98866.47;5100256;27;45453;-61
2023/03/08 06:22:35;;;;;;;;;24.00;15.67;;;;;2.50;100.00;98898.22;5099610;27;46619;-61
2023/03/08 06:25:01;;;;;;;;;15.00;13.33;;;;;2.52;100.00;98892.97;5099490;27;45406;-61
2023/03/08 06:27:27;;;;;;;;;15.33;15.33;;;;;2.48;100.00;98881.78;5099552;27;45442;-61
2023/03/08 06:29:52;;;;;;;;;22.67;15.67;;;;;2.33;100.00;98830.16;5099534;27;45220;-61
2023/03/08 06:32:18;;;;;;;;;16.00;13.33;;;;;2.52;98.47;98867.00;5099361;27;47491;-61
2023/03/08 06:34:44;;;;;;;;;17.67;15.33;;;;;2.46;100.00;98847.19;5099504;27;45213;-61
2023/03/08 06:37:09;;;;;;;;;15.33;14.00;;;;;2.42;98.91;98843.78;5099554;27;45336;-61
2023/03/08 06:39:36;;;;;;;;;18.67;15.67;;;;;2.52;99.81;98852.25;5099335;27;45364;-61
2023/03/08 06:42:02;;;;;;;;;17.33;15.33;;;;;2.53;97.98;98840.16;5099065;27;45385;-61
2023/03/08 06:44:28;;;;;;;;;14.67;13.67;;;;;2.60;100.00;98860.75;5099326;27;45270;-61
2023/03/08 06:46:54;;;;;;;;;16.00;10.33;;;;;2.60;97.17;98852.13;5099335;27;45345;-61
2023/03/08 06:49:20;;;;;;;;;11.67;9.67;;;;;2.61;96.78;98846.03;5099491;27;45426;-61
2023/03/08 06:51:45;;;;;;;;;18.00;14.00;;;;;2.59;96.68;98846.06;5099258;27;46487;-61
2023/03/08 06:54:16;;;;;;;;;17.00;14.00;;;;;2.52;97.29;98834.09;5098957;27;45356;-61
2023/03/08 06:56:41;;;;;;;;;24.33;17.33;;;;;2.31;97.34;98786.06;5099031;27;45397;-61
2023/03/08 06:59:07;;;;;;;;;17.67;15.33;;;;;2.65;97.26;98829.47;5099301;27;45452;-61
2023/03/08 07:01:32;;;;;;;;;17.33;15.00;;;;;2.57;95.53;98811.47;5098835;27;46350;-62
2023/03/08 07:03:58;;;;;;;;;18.67;14.33;;;;;2.62;97.12;98832.16;5099014;27;45350;-61
2023/03/08 07:06:23;;;;;;;;;22.67;16.33;;;;;2.58;97.58;98822.72;5098873;27;45329;-62
2023/03/08 07:08:49;;;;;;;;;17.00;15.00;;;;;2.61;97.33;98833.03;5099266;27;45171;-62
2023/03/08 07:11:14;;;;;;;;;13.67;10.33;;;;;2.64;97.28;98837.31;5098616;27;47159;-61
2023/03/08 07:13:40;;;;;;;;;18.67;14.33;;;;;2.48;97.48;98798.66;5098955;27;45232;-61
2023/03/08 07:16:07;;;;;;;;;22.33;14.33;;;;;2.67;98.04;98832.88;5098888;27;45368;-61
2023/03/08 07:18:33;;;;;;;;;15.33;13.67;;;;;2.64;97.36;98824.31;5099184;27;45182;-61
2023/03/08 07:20:58;;;;;;;;;13.67;12.00;;;;;2.71;96.35;98836.28;5098737;27;46752;-62
2023/03/08 07:23:24;;;;;;;;;19.00;15.00;;;;;2.71;95.83;98823.31;5098586;27;45391;-61
2023/03/08 07:25:50;;;;;;;;;14.67;12.00;;;;;2.74;95.99;98826.66;5098839;27;45337;-62
2023/03/08 07:28:15;;;;;;;;;16.67;15.67;;;;;2.70;95.30;98818.97;5098676;27;45461;-61
2023/03/08 07:30:46;;;;;;;;;21.33;14.33;;;;;2.75;95.38;98825.78;5098608;27;45516;-61
2023/03/08 07:33:12;;;;;;;;;15.00;10.33;;;;;2.82;95.69;98821.31;5098601;27;45232;-61
2023/03/08 07:35:37;;;;;;;;;11.33;8.33;;;;;2.72;95.76;98801.63;5098921;27;45454;-61
2023/03/08 07:38:02;;;;;;;;;23.33;16.00;;;;;2.82;95.90;98813.53;5098805;27;45270;-62
2023/03/08 07:40:27;;;;;;;;;16.67;15.33;;;;;2.85;96.67;98817.81;5098511;27;45478;-62
2023/03/08 07:42:54;;;;;;;;;19.67;15.33;;;;;2.87;96.39;98829.84;5098390;27;45449;-61
2023/03/08 07:45:19;;;;;;;;;18.33;14.67;;;;;2.85;96.25;98810.84;5098439;27;45289;-62
2023/03/08 07:47:45;;;;;;;;;19.00;13.67;;;;;2.93;95.74;98821.06;5098683;27;45502;-63
2023/03/08 07:50:10;;;;;;;;;13.67;11.67;;;;;2.92;94.76;98808.94;5098313;27;46371;-61
2023/03/08 07:52:35;;;;;;;;;12.00;11.00;;;;;2.94;96.08;98812.38;5097295;27;45316;-63
2023/03/08 07:55:01;;;;;;;;;12.00;12.00;;;;;2.66;95.83;98761.06;5098459;27;45395;-63
2023/03/08 07:57:27;;;;;;;;;12.33;11.00;;;;;3.02;95.27;98801.81;5098281;27;45446;-63
2023/03/08 07:59:52;;;;;;;;;11.00;11.00;;;;;2.98;95.10;98769.84;5098362;27;45343;-63
2023/03/08 08:02:18;;;;;;;;;15.00;14.00;;;;;2.97;94.41;98788.91;5098273;27;45463;-64
2023/03/08 08:04:43;;;;;;;;;14.00;10.00;;;;;2.68;95.45;98751.47;5098145;27;45806;-63
2023/03/08 08:07:14;;;;;;;;;13.67;11.33;;;;;3.03;98.12;98798.31;5098147;27;45368;-64
2023/03/08 08:09:40;;;;;;;;;20.67;18.67;;;;;3.05;100.00;98791.31;5097954;27;45786;-61
2023/03/08 08:12:05;;;;;;;;;10.00;9.33;;;;;3.07;99.90;98794.75;5097917;27;45310;-61
2023/03/08 08:14:31;;;;;;;;;14.33;10.67;;;;;3.08;100.00;98783.44;5098143;27;45358;-61
2023/03/08 08:16:56;;;;;;;;;8.67;8.33;;;;;3.06;95.66;98767.88;5098258;27;45400;-61
2023/03/08 08:19:22;;;;;;;;;13.67;8.33;;;;;3.13;96.34;98772.06;5097866;27;46581;-61
2023/03/08 08:21:48;;;;;;;;;9.33;7.33;;;;;3.18;96.15;98778.88;5097955;27;45314;-61
2023/03/08 08:24:14;;;;;;;;;8.00;8.00;;;;;3.23;95.87;98772.69;5098019;27;45299;-61
2023/03/08 08:26:39;;;;;;;;;9.67;9.33;;;;;3.21;95.73;98763.22;5098040;27;45245;-61
2023/03/08 08:29:05;;;;;;;;;12.33;9.67;;;;;3.20;95.08;98751.13;5097622;27;46915;-61
2023/03/08 08:31:30;;;;;;;;;8.67;7.00;;;;;3.30;94.26;98766.44;5097754;27;45339;-61
2023/03/08 08:33:57;;;;;;;;;7.67;7.67;;;;;3.27;93.97;98758.72;5097985;27;45299;-61
2023/03/08 08:36:23;;;;;;;;;13.00;10.00;;;;;3.26;94.40;98759.59;5098141;27;45513;-61
2023/03/08 08:38:49;;;;;;;;;9.33;7.67;;;;;3.26;94.45;98758.75;5097594;27;45388;-61
2023/03/08 08:41:17;;;;;;;;;11.67;7.67;;;;;3.31;94.67;98768.16;5097723;27;45419;-61
2023/03/08 08:43:44;;;;;;;;;12.67;7.00;;;;;3.35;93.94;98770.69;5097770;27;45402;-61
2023/03/08 08:46:09;;;;;;;;;8.00;6.00;;;;;3.28;94.44;98764.75;5097889;27;45332;-61
2023/03/08 08:48:36;;;;;;;;;8.33;7.00;;;;;3.46;93.27;98792.06;5097521;27;46577;-61
2023/03/08 08:51:03;;;;;;;;;10.33;8.00;;;;;3.40;94.00;98771.41;5097611;27;45431;-61
2023/03/08 08:53:29;;;;;;;;;11.00;8.67;;;;;3.45;92.81;98765.19;5097401;27;45224;-61
2023/03/08 08:55:55;;;;;;;;;8.33;8.00;;;;;3.47;93.00;98784.22;5097873;27;45343;-61
2023/03/08 08:58:20;;;;;;;;;6.33;6.33;;;;;3.25;93.22;98729.31;5097176;27;46507;-61
2023/03/08 09:00:46;;;;;;;;;7.33;7.33;;;;;3.49;93.12;98766.81;5097411;27;45327;-62
2023/03/08 09:03:11;;;;;;;;;7.33;7.00;;;;;3.33;92.56;98752.50;5098530;27;45497;-61
2023/03/08 09:05:39;;;;;;;;;10.00;8.00;;;;;3.46;92.58;98782.50;5101100;27;45338;-61
2023/03/08 09:08:05;;;;;;;;;11.67;10.33;;;;;3.41;95.01;98766.19;5100720;27;47425;-61
2023/03/08 09:10:32;;;;;;;;;6.00;6.00;;;;;3.53;94.16;98771.94;5100973;27;45721;-61
2023/03/08 09:12:59;;;;;;;;;15.00;8.00;;;;;3.61;93.28;98786.44;5101014;27;45388;-63
2023/03/08 09:15:24;;;;;;;;;11.00;7.00;;;;;3.49;92.96;98765.97;5101039;27;45236;-63
2023/03/08 09:17:50;;;;;;;;;14.67;10.33;;;;;3.60;93.05;98771.75;5100675;27;45544;-63
2023/03/08 09:20:16;;;;;;;;;7.00;7.00;;;;;3.60;92.50;98776.97;5100859;27;45318;-61
2023/03/08 09:22:42;;;;;;;;;13.33;9.33;;;;;3.60;92.58;98776.09;5100929;27;45486;-61
2023/03/08 09:25:09;;;;;;;;;10.00;8.00;;;;;3.63;92.36;98776.00;5100865;27;45266;-62
2023/03/08 09:27:37;;;;;;;;;7.33;7.33;;;;;3.63;92.66;98763.00;5100341;27;45438;-62
2023/03/08 09:30:03;;;;;;;;;7.67;7.33;;;;;3.68;92.58;98768.09;5100477;27;45304;-62
2023/03/08 09:32:31;;;;;;;;;6.00;6.00;;;;;3.70;91.56;98767.13;5100658;27;45285;-62
2023/03/08 09:34:57;;;;;;;;;10.00;7.00;;;;;3.43;92.10;98717.56;5100778;27;45329;-62
2023/03/08 09:37:22;;;;;;;;;6.00;6.00;;;;;3.69;92.29;98761.97;5100398;27;45396;-61
2023/03/08 09:39:50;;;;;;;;;8.00;7.33;;;;;3.79;93.66;98772.13;5100523;27;45421;-62
2023/03/08 09:42:23;;;;;;;;;6.00;5.67;;;;;3.82;92.18;98766.81;5100434;27;45317;-62
2023/03/08 09:45:27;;;;;;;;;6.33;6.33;;;;;3.90;92.29;98756.19;5100507;27;45554;-62
2023/03/08 09:48:11;;;;;;;;;9.67;8.67;;;;;4.02;92.90;98754.97;5099884;27;46516;-61
2023/03/08 09:50:43;;;;;;;;;9.67;8.00;;;;;4.06;92.86;98746.19;5100169;27;45346;-61
2023/03/08 09:53:11;;;;;;;;;6.00;6.00;;;;;4.17;91.28;98759.75;5100450;27;45334;-61
2023/03/08 09:55:46;;;;;;;;;6.00;6.00;;;;;4.24;91.33;98763.06;5100419;27;45333;-61
2023/03/08 09:58:46;;;;;;;;;5.33;4.67;;;;;4.29;91.43;98748.13;5099866;27;46251;-61
2023/03/08 10:01:59;;;;;;;;;5.00;4.33;;;;;4.31;91.38;98742.88;5099527;27;45502;-62
2023/03/08 10:04:29;;;;;;;;;11.00;7.00;;;;;4.54;91.35;98744.78;5095752;27;45395;-61
2023/03/08 10:07:18;;;;;;;;;9.00;7.00;;;;;4.70;90.05;98748.66;5100048;27;45588;-61
2023/03/08 10:10:19;;;;;;;;;7.33;7.33;;;;;4.87;89.86;98757.69;5099854;27;46268;-61
2023/03/08 10:12:59;;;;;;;;;6.00;6.00;;;;;4.96;88.81;98746.94;5099685;27;45221;-61
2023/03/08 10:15:27;;;;;;;;;4.67;4.67;;;;;4.96;88.53;98741.72;5099275;27;45307;-61
2023/03/08 10:18:28;;;;;;;;;6.00;4.67;;;;;5.02;88.61;98759.78;5100157;27;45542;-61
2023/03/08 10:20:56;;;;;;;;;7.00;6.33;;;;;5.08;88.73;98750.06;5056619;28;45689;-61
2023/03/08 10:23:23;;;;;;;;;10.67;8.33;;;;;5.14;88.60;98757.69;5056823;28;45430;-61
2023/03/08 10:25:49;;;;;;;;;4.67;4.00;;;;;5.20;88.41;98747.06;5056839;28;45294;-61
2023/03/08 10:28:18;;;;;;;;;6.33;6.00;;;;;5.20;88.08;98742.69;5056649;28;45580;-61
2023/03/08 10:30:50;;;;;;;;;7.00;7.00;;;;;5.20;87.54;98734.03;5056622;28;46449;-62
2023/03/08 10:33:18;;;;;;;;;2.00;2.00;;;;;5.31;87.82;98733.66;5056837;28;45401;-61
2023/03/08 10:36:20;;;;;;;;;7.00;4.00;;;;;5.45;87.23;98741.84;5056807;28;45341;-61
2023/03/08 10:38:57;;;;;;;;;8.00;7.00;;;;;5.43;87.56;98740.19;5055336;28;45513;-61
2023/03/08 10:41:23;;;;;;;;;8.00;4.00;;;;;5.45;86.82;98744.47;5056371;28;45449;-61
2023/03/08 10:43:52;;;;;;;;;8.00;6.00;;;;;5.40;85.55;98756.81;5056363;28;45592;-61
2023/03/08 10:46:20;;;;;;;;;6.50;6.00;;;;;5.28;86.18;98758.06;5056700;28;45370;-61
2023/03/08 10:48:46;;;;;;;;;9.00;6.33;;;;;5.06;87.09;98739.69;5056658;28;45504;-61
2023/03/08 10:51:24;;;;;;;;;8.50;6.00;;;;;5.15;87.69;98746.34;5056132;28;45443;-61
2023/03/08 10:54:14;;;;;;;;;8.00;8.00;;;;;5.15;87.59;98768.06;5056480;28;45547;-61
2023/03/08 10:56:46;;;;;;;;;7.67;7.67;;;;;5.13;88.18;98771.66;5068257;27;45496;-61
2023/03/08 10:59:20;;;;;;;;;10.00;8.33;;;;;5.10;88.50;98763.91;5099473;27;45338;-61
2023/03/08 11:01:54;;;;;;;;;12.33;9.33;;;;;5.17;87.76;98781.94;5098984;27;46133;-61
2023/03/08 11:04:22;;;;;;;;;12.00;8.33;;;;;5.12;87.83;98776.00;5098769;27;45394;-61
2023/03/08 11:06:48;;;;;;;;;13.00;9.33;;;;;5.16;88.98;98782.81;5098788;27;45396;-61
2023/03/08 11:09:26;;;;;;;;;13.67;9.00;;;;;5.27;88.95;98786.84;5099097;27;45368;-61
2023/03/08 11:11:53;;;;;;;;;12.33;8.67;;;;;5.27;87.01;98779.88;5098713;27;46490;-62
2023/03/08 11:14:18;;;;;;;;;9.00;7.33;;;;;5.25;87.74;98770.38;5098877;27;45281;-61
2023/03/08 11:16:46;;;;;;;;;11.33;9.00;;;;;5.23;87.65;98771.28;5098852;27;45328;-61
2023/03/08 11:19:12;;;;;;;;;12.00;9.00;;;;;5.23;86.85;98773.91;5098966;27;45423;-61
2023/03/08 11:22:04;;;;;;;;;11.00;8.33;;;;;5.25;88.07;98773.00;5098469;27;45692;-62
2023/03/08 11:24:48;;;;;;;;;11.33;9.67;;;;;5.29;87.46;98783.28;5098738;27;45312;-61
2023/03/08 11:27:32;;;;;;;;;6.00;6.00;;;;;5.26;87.54;98782.50;5097549;27;45379;-61
2023/03/08 11:30:06;;;;;;;;;12.67;8.00;;;;;5.29;88.04;98782.44;5098888;27;45438;-61